Terminal Aerodrome Forecast
Issued by NWS Mobile, AL

Home | Current Version | Previous Version | Text Only | Print | Product List | Glossary On
Versions: 1 2 3 4 5 6 7 8 9 10 11 12 13 14 15 16 17 18 19 20 21 22 23 24 25 26 27 28
000
FTUS44 KMOB 291832 AAA
TAFPNS
TAF AMD
KPNS 291832Z 2919/3018 33009KT P6SM SCT035 BKN200
      TEMPO 2919/2923 VRB20G30KT 4SM TSRA BKN015CB
     FM300200 VRB05KT P6SM SCT050 BKN200=

USA.gov is the U.S. government's official web portal to all federal, state and local government web resources and services.